sensor_id;sensor_type;location;lat;lon;timestamp;noise_LAeq;noise_LA_min;noise_LA_max;noise_LA01;noise_LA95
40103;Laerm;25814;48.550;9.108;2022-08-14T00:00:50;39.78;30.93;52.07;;
40103;Laerm;25814;48.550;9.108;2022-08-14T00:03:20;44.10;30.77;56.00;;
40103;Laerm;25814;48.550;9.108;2022-08-14T00:05:54;43.34;30.80;55.65;;
40103;Laerm;25814;48.550;9.108;2022-08-14T00:08:24;42.71;33.17;52.93;;
40103;Laerm;25814;48.550;9.108;2022-08-14T00:10:53;38.13;30.85;49.20;;
40103;Laerm;25814;48.550;9.108;2022-08-14T00:13:25;32.91;29.45;39.68;;
40103;Laerm;25814;48.550;9.108;2022-08-14T00:15:58;32.23;29.44;44.03;;
40103;Laerm;25814;48.550;9.108;2022-08-14T00:18:28;32.44;29.22;37.31;;
40103;Laerm;25814;48.550;9.108;2022-08-14T00:20:59;34.87;29.36;50.61;;
40103;Laerm;25814;48.550;9.108;2022-08-14T00:23:29;32.37;29.37;37.72;;
40103;Laerm;25814;48.550;9.108;2022-08-14T00:25:58;31.63;28.51;36.05;;
40103;Laerm;25814;48.550;9.108;2022-08-14T00:28:27;32.06;29.18;49.05;;
40103;Laerm;25814;48.550;9.108;2022-08-14T00:30:56;32.32;29.08;49.55;;
40103;Laerm;25814;48.550;9.108;2022-08-14T00:33:28;32.57;28.83;41.88;;
40103;Laerm;25814;48.550;9.108;2022-08-14T00:35:59;33.52;29.20;44.43;;
40103;Laerm;25814;48.550;9.108;2022-08-14T00:38:28;31.65;28.64;47.21;;
40103;Laerm;25814;48.550;9.108;2022-08-14T00:40:56;32.34;28.77;48.42;;
40103;Laerm;25814;48.550;9.108;2022-08-14T00:43:25;33.97;29.41;50.20;;
40103;Laerm;25814;48.550;9.108;2022-08-14T00:45:55;32.74;28.01;49.69;;
40103;Laerm;25814;48.550;9.108;2022-08-14T00:48:24;30.82;28.48;40.88;;
40103;Laerm;25814;48.550;9.108;2022-08-14T00:50:52;32.57;28.54;41.99;;
40103;Laerm;25814;48.550;9.108;2022-08-14T00:53:24;31.12;28.71;47.77;;
40103;Laerm;25814;48.550;9.108;2022-08-14T00:55:54;32.52;28.99;54.97;;
40103;Laerm;25814;48.550;9.108;2022-08-14T00:58:23;31.77;28.86;44.74;;
40103;Laerm;25814;48.550;9.108;2022-08-14T01:01:00;34.27;29.26;51.16;;
40103;Laerm;25814;48.550;9.108;2022-08-14T01:03:30;40.50;29.17;61.83;;
40103;Laerm;25814;48.550;9.108;2022-08-14T01:06:06;32.02;28.63;45.96;;
40103;Laerm;25814;48.550;9.108;2022-08-14T01:08:39;31.28;28.67;41.77;;
40103;Laerm;25814;48.550;9.108;2022-08-14T01:11:10;30.86;28.37;40.97;;
40103;Laerm;25814;48.550;9.108;2022-08-14T01:13:43;31.12;28.68;40.05;;
40103;Laerm;25814;48.550;9.108;2022-08-14T01:16:16;31.17;28.75;46.76;;
40103;Laerm;25814;48.550;9.108;2022-08-14T01:18:46;31.83;28.46;49.30;;
40103;Laerm;25814;48.550;9.108;2022-08-14T01:21:34;33.39;28.43;47.09;;
40103;Laerm;25814;48.550;9.108;2022-08-14T01:24:06;30.59;28.47;46.75;;
40103;Laerm;25814;48.550;9.108;2022-08-14T01:26:35;30.62;28.52;34.50;;
40103;Laerm;25814;48.550;9.108;2022-08-14T01:29:05;30.50;28.69;35.35;;
40103;Laerm;25814;48.550;9.108;2022-08-14T01:31:37;30.80;28.80;46.07;;
40103;Laerm;25814;48.550;9.108;2022-08-14T01:34:07;30.43;28.53;43.07;;
40103;Laerm;25814;48.550;9.108;2022-08-14T01:36:38;31.38;28.62;45.52;;
40103;Laerm;25814;48.550;9.108;2022-08-14T01:39:10;31.01;28.51;37.06;;
40103;Laerm;25814;48.550;9.108;2022-08-14T01:41:42;30.84;28.46;46.84;;
40103;Laerm;25814;48.550;9.108;2022-08-14T01:44:23;31.33;28.63;46.90;;
40103;Laerm;25814;48.550;9.108;2022-08-14T01:46:56;30.56;28.52;40.72;;
40103;Laerm;25814;48.550;9.108;2022-08-14T01:49:26;30.58;28.57;46.75;;
40103;Laerm;25814;48.550;9.108;2022-08-14T01:51:59;30.48;28.68;38.24;;
40103;Laerm;25814;48.550;9.108;2022-08-14T01:54:28;30.13;28.29;34.49;;
40103;Laerm;25814;48.550;9.108;2022-08-14T01:56:57;30.11;28.58;45.13;;
40103;Laerm;25814;48.550;9.108;2022-08-14T01:59:29;30.09;28.46;47.92;;
40103;Laerm;25814;48.550;9.108;2022-08-14T02:02:03;30.49;28.53;39.93;;
40103;Laerm;25814;48.550;9.108;2022-08-14T02:04:38;29.96;28.39;45.59;;
40103;Laerm;25814;48.550;9.108;2022-08-14T02:07:09;30.04;28.21;34.48;;
40103;Laerm;25814;48.550;9.108;2022-08-14T02:09:38;29.82;28.22;33.47;;
40103;Laerm;25814;48.550;9.108;2022-08-14T02:12:08;30.17;28.29;48.26;;
40103;Laerm;25814;48.550;9.108;2022-08-14T02:14:38;30.20;28.34;34.80;;
40103;Laerm;25814;48.550;9.108;2022-08-14T02:17:07;30.22;28.39;36.27;;
40103;Laerm;25814;48.550;9.108;2022-08-14T02:19:38;33.67;28.57;49.77;;
40103;Laerm;25814;48.550;9.108;2022-08-14T02:22:09;30.54;28.02;39.55;;
40103;Laerm;25814;48.550;9.108;2022-08-14T02:24:38;30.20;28.36;42.40;;
40103;Laerm;25814;48.550;9.108;2022-08-14T02:27:07;30.03;28.34;48.53;;
40103;Laerm;25814;48.550;9.108;2022-08-14T02:29:38;30.59;28.36;38.53;;
40103;Laerm;25814;48.550;9.108;2022-08-14T02:32:08;30.44;28.33;34.13;;
40103;Laerm;25814;48.550;9.108;2022-08-14T02:34:37;30.11;28.26;44.23;;
40103;Laerm;25814;48.550;9.108;2022-08-14T02:37:11;30.34;28.54;39.90;;
40103;Laerm;25814;48.550;9.108;2022-08-14T02:39:43;31.16;28.51;55.93;;
40103;Laerm;25814;48.550;9.108;2022-08-14T02:42:16;30.06;28.22;38.08;;
40103;Laerm;25814;48.550;9.108;2022-08-14T02:44:47;30.37;28.47;52.69;;
40103;Laerm;25814;48.550;9.108;2022-08-14T02:47:17;30.23;28.33;35.47;;
40103;Laerm;25814;48.550;9.108;2022-08-14T02:49:48;30.28;28.57;44.94;;
40103;Laerm;25814;48.550;9.108;2022-08-14T02:52:22;30.52;28.41;35.06;;
40103;Laerm;25814;48.550;9.108;2022-08-14T02:54:52;30.34;28.58;36.49;;
40103;Laerm;25814;48.550;9.108;2022-08-14T02:57:22;30.49;28.43;46.90;;
40103;Laerm;25814;48.550;9.108;2022-08-14T02:59:52;30.29;28.40;42.67;;
40103;Laerm;25814;48.550;9.108;2022-08-14T03:02:22;30.75;28.50;47.94;;
40103;Laerm;25814;48.550;9.108;2022-08-14T03:04:51;30.38;28.37;44.46;;
40103;Laerm;25814;48.550;9.108;2022-08-14T03:07:23;30.91;28.95;34.45;;
40103;Laerm;25814;48.550;9.108;2022-08-14T03:09:51;30.85;29.10;35.04;;
40103;Laerm;25814;48.550;9.108;2022-08-14T03:12:22;30.63;28.87;43.49;;
40103;Laerm;25814;48.550;9.108;2022-08-14T03:14:51;31.33;28.93;38.27;;
40103;Laerm;25814;48.550;9.108;2022-08-14T03:17:20;30.95;28.58;41.01;;
40103;Laerm;25814;48.550;9.108;2022-08-14T03:19:49;30.40;28.46;33.67;;
40103;Laerm;25814;48.550;9.108;2022-08-14T03:22:18;32.19;28.58;45.29;;
40103;Laerm;25814;48.550;9.108;2022-08-14T03:24:49;31.71;28.81;39.23;;
40103;Laerm;25814;48.550;9.108;2022-08-14T03:27:18;30.69;28.79;33.59;;
40103;Laerm;25814;48.550;9.108;2022-08-14T03:29:47;30.45;28.54;34.12;;
40103;Laerm;25814;48.550;9.108;2022-08-14T03:32:17;30.36;28.27;36.88;;
40103;Laerm;25814;48.550;9.108;2022-08-14T03:34:45;30.34;28.50;35.11;;
40103;Laerm;25814;48.550;9.108;2022-08-14T03:37:14;30.63;28.80;41.64;;
40103;Laerm;25814;48.550;9.108;2022-08-14T03:39:43;30.76;28.65;48.34;;
40103;Laerm;25814;48.550;9.108;2022-08-14T03:42:14;30.67;28.48;47.74;;
40103;Laerm;25814;48.550;9.108;2022-08-14T03:44:43;30.83;28.45;40.89;;
40103;Laerm;25814;48.550;9.108;2022-08-14T03:47:13;31.20;28.90;40.50;;
40103;Laerm;25814;48.550;9.108;2022-08-14T03:49:42;30.50;28.66;36.19;;
40103;Laerm;25814;48.550;9.108;2022-08-14T03:52:12;30.45;28.48;40.11;;
40103;Laerm;25814;48.550;9.108;2022-08-14T03:54:40;30.75;28.51;42.50;;
40103;Laerm;25814;48.550;9.108;2022-08-14T03:57:13;30.53;28.60;41.41;;
40103;Laerm;25814;48.550;9.108;2022-08-14T03:59:42;32.81;28.49;49.07;;
40103;Laerm;25814;48.550;9.108;2022-08-14T04:02:11;38.89;29.54;51.82;;
40103;Laerm;25814;48.550;9.108;2022-08-14T04:04:40;31.28;28.83;42.48;;
40103;Laerm;25814;48.550;9.108;2022-08-14T04:07:09;31.96;28.61;38.96;;
40103;Laerm;25814;48.550;9.108;2022-08-14T04:09:38;30.63;28.50;42.06;;
40103;Laerm;25814;48.550;9.108;2022-08-14T04:12:07;32.81;28.83;46.27;;
40103;Laerm;25814;48.550;9.108;2022-08-14T04:14:39;40.32;29.11;57.85;;
40103;Laerm;25814;48.550;9.108;2022-08-14T04:17:08;40.36;29.19;57.40;;
40103;Laerm;25814;48.550;9.108;2022-08-14T04:19:38;41.54;29.39;59.67;;
40103;Laerm;25814;48.550;9.108;2022-08-14T04:22:07;40.98;29.24;59.92;;
40103;Laerm;25814;48.550;9.108;2022-08-14T04:24:36;38.29;29.32;60.14;;
40103;Laerm;25814;48.550;9.108;2022-08-14T04:27:06;46.31;29.73;58.42;;
40103;Laerm;25814;48.550;9.108;2022-08-14T04:29:41;38.51;29.40;59.49;;
40103;Laerm;25814;48.550;9.108;2022-08-14T04:32:11;40.95;29.24;59.67;;
40103;Laerm;25814;48.550;9.108;2022-08-14T04:34:40;41.69;28.88;59.51;;
40103;Laerm;25814;48.550;9.108;2022-08-14T04:37:09;32.53;28.90;58.41;;
40103;Laerm;25814;48.550;9.108;2022-08-14T04:39:52;30.48;28.49;40.20;;
40103;Laerm;25814;48.550;9.108;2022-08-14T04:42:33;31.30;28.63;49.25;;
40103;Laerm;25814;48.550;9.108;2022-08-14T04:45:19;31.60;28.54;53.48;;
40103;Laerm;25814;48.550;9.108;2022-08-14T04:47:49;44.52;28.98;69.97;;
40103;Laerm;25814;48.550;9.108;2022-08-14T04:50:30;34.75;29.19;56.17;;
40103;Laerm;25814;48.550;9.108;2022-08-14T04:53:00;34.88;29.17;52.37;;
40103;Laerm;25814;48.550;9.108;2022-08-14T04:55:29;35.60;28.90;58.22;;
40103;Laerm;25814;48.550;9.108;2022-08-14T04:57:59;32.91;29.16;49.79;;
40103;Laerm;25814;48.550;9.108;2022-08-14T05:00:31;46.72;29.25;65.49;;
40103;Laerm;25814;48.550;9.108;2022-08-14T05:03:00;36.63;29.28;67.16;;
40103;Laerm;25814;48.550;9.108;2022-08-14T05:05:30;32.38;28.98;48.13;;
40103;Laerm;25814;48.550;9.108;2022-08-14T05:08:05;33.21;29.11;51.89;;
40103;Laerm;25814;48.550;9.108;2022-08-14T05:10:41;37.12;28.88;55.35;;
40103;Laerm;25814;48.550;9.108;2022-08-14T05:13:11;33.24;28.90;48.21;;
40103;Laerm;25814;48.550;9.108;2022-08-14T05:15:44;33.60;28.89;52.05;;
40103;Laerm;25814;48.550;9.108;2022-08-14T05:18:18;33.64;28.86;48.89;;
40103;Laerm;25814;48.550;9.108;2022-08-14T05:20:51;33.21;29.21;55.36;;
40103;Laerm;25814;48.550;9.108;2022-08-14T05:23:24;34.56;29.82;49.46;;
40103;Laerm;25814;48.550;9.108;2022-08-14T05:25:57;33.63;29.35;48.56;;
40103;Laerm;25814;48.550;9.108;2022-08-14T05:28:32;32.76;29.10;45.95;;
40103;Laerm;25814;48.550;9.108;2022-08-14T05:31:05;33.17;28.98;51.69;;
40103;Laerm;25814;48.550;9.108;2022-08-14T05:33:36;34.05;29.53;54.64;;
40103;Laerm;25814;48.550;9.108;2022-08-14T05:36:09;44.27;29.47;57.41;;
40103;Laerm;25814;48.550;9.108;2022-08-14T05:38:41;35.81;29.53;55.81;;
40103;Laerm;25814;48.550;9.108;2022-08-14T05:41:15;32.45;29.17;48.78;;
40103;Laerm;25814;48.550;9.108;2022-08-14T05:43:46;32.04;29.15;41.97;;
40103;Laerm;25814;48.550;9.108;2022-08-14T05:46:20;31.77;29.09;37.53;;
40103;Laerm;25814;48.550;9.108;2022-08-14T05:48:51;42.66;29.24;55.74;;
40103;Laerm;25814;48.550;9.108;2022-08-14T05:51:23;31.94;29.33;44.49;;
40103;Laerm;25814;48.550;9.108;2022-08-14T05:53:53;42.16;29.26;53.02;;
40103;Laerm;25814;48.550;9.108;2022-08-14T05:56:22;31.81;29.23;40.14;;
40103;Laerm;25814;48.550;9.108;2022-08-14T05:58:53;31.08;28.88;37.70;;
40103;Laerm;25814;48.550;9.108;2022-08-14T06:01:24;53.88;29.47;68.35;;
40103;Laerm;25814;48.550;9.108;2022-08-14T06:03:53;32.28;28.43;43.24;;
40103;Laerm;25814;48.550;9.108;2022-08-14T06:06:22;32.69;28.75;45.03;;
40103;Laerm;25814;48.550;9.108;2022-08-14T06:08:50;32.99;29.01;44.80;;
40103;Laerm;25814;48.550;9.108;2022-08-14T06:11:19;33.00;29.02;45.50;;
40103;Laerm;25814;48.550;9.108;2022-08-14T06:13:48;47.62;30.78;60.51;;
40103;Laerm;25814;48.550;9.108;2022-08-14T06:16:17;42.94;30.95;57.39;;
40103;Laerm;25814;48.550;9.108;2022-08-14T06:18:49;40.85;31.26;58.03;;
40103;Laerm;25814;48.550;9.108;2022-08-14T06:21:17;40.68;29.55;57.21;;
40103;Laerm;25814;48.550;9.108;2022-08-14T06:23:46;37.19;29.08;56.06;;
40103;Laerm;25814;48.550;9.108;2022-08-14T06:26:15;39.75;28.90;56.38;;
40103;Laerm;25814;48.550;9.108;2022-08-14T06:28:44;31.98;28.91;42.12;;
40103;Laerm;25814;48.550;9.108;2022-08-14T06:31:12;39.50;29.03;56.42;;
40103;Laerm;25814;48.550;9.108;2022-08-14T06:33:42;34.22;29.10;56.97;;
40103;Laerm;25814;48.550;9.108;2022-08-14T06:36:16;49.79;28.75;73.33;;
40103;Laerm;25814;48.550;9.108;2022-08-14T06:38:45;40.78;29.38;55.75;;
40103;Laerm;25814;48.550;9.108;2022-08-14T06:41:14;31.95;29.11;44.66;;
40103;Laerm;25814;48.550;9.108;2022-08-14T06:43:42;32.59;29.45;40.85;;
40103;Laerm;25814;48.550;9.108;2022-08-14T06:46:11;35.71;29.27;53.34;;
40103;Laerm;25814;48.550;9.108;2022-08-14T06:48:40;33.95;29.48;51.38;;
40103;Laerm;25814;48.550;9.108;2022-08-14T06:51:09;36.74;29.40;57.61;;
40103;Laerm;25814;48.550;9.108;2022-08-14T06:53:40;32.64;28.91;56.08;;
40103;Laerm;25814;48.550;9.108;2022-08-14T06:56:09;33.05;29.52;46.82;;
40103;Laerm;25814;48.550;9.108;2022-08-14T06:58:38;34.01;29.51;53.17;;
40103;Laerm;25814;48.550;9.108;2022-08-14T07:01:06;32.64;28.93;48.66;;
40103;Laerm;25814;48.550;9.108;2022-08-14T07:03:48;51.01;29.63;68.76;;
40103;Laerm;25814;48.550;9.108;2022-08-14T07:06:29;34.17;28.92;52.24;;
40103;Laerm;25814;48.550;9.108;2022-08-14T07:09:00;39.13;28.69;54.80;;
40103;Laerm;25814;48.550;9.108;2022-08-14T07:11:29;37.99;29.05;50.62;;
40103;Laerm;25814;48.550;9.108;2022-08-14T07:13:58;36.18;28.82;62.98;;
40103;Laerm;25814;48.550;9.108;2022-08-14T07:16:27;37.19;28.64;56.77;;
40103;Laerm;25814;48.550;9.108;2022-08-14T07:18:56;37.61;29.07;63.37;;
40103;Laerm;25814;48.550;9.108;2022-08-14T07:21:25;46.18;29.56;60.86;;
40103;Laerm;25814;48.550;9.108;2022-08-14T07:23:54;39.56;28.87;59.25;;
40103;Laerm;25814;48.550;9.108;2022-08-14T07:26:25;48.42;29.67;64.61;;
40103;Laerm;25814;48.550;9.108;2022-08-14T07:28:54;43.18;29.15;59.36;;
40103;Laerm;25814;48.550;9.108;2022-08-14T07:31:22;33.47;29.30;50.60;;
40103;Laerm;25814;48.550;9.108;2022-08-14T07:33:51;37.75;30.18;56.19;;
40103;Laerm;25814;48.550;9.108;2022-08-14T07:36:21;35.09;29.34;55.34;;
40103;Laerm;25814;48.550;9.108;2022-08-14T07:38:49;35.33;28.84;56.43;;
40103;Laerm;25814;48.550;9.108;2022-08-14T07:41:18;38.78;28.86;56.66;;
40103;Laerm;25814;48.550;9.108;2022-08-14T07:43:50;40.95;29.91;56.04;;
40103;Laerm;25814;48.550;9.108;2022-08-14T07:46:18;35.32;29.38;53.51;;
40103;Laerm;25814;48.550;9.108;2022-08-14T07:48:47;41.35;31.48;65.17;;
40103;Laerm;25814;48.550;9.108;2022-08-14T07:51:18;39.14;31.86;60.01;;
40103;Laerm;25814;48.550;9.108;2022-08-14T07:53:47;34.32;29.27;52.91;;
40103;Laerm;25814;48.550;9.108;2022-08-14T07:56:16;39.76;29.50;55.60;;
40103;Laerm;25814;48.550;9.108;2022-08-14T07:58:45;37.61;31.47;47.54;;
40103;Laerm;25814;48.550;9.108;2022-08-14T08:01:18;44.96;31.85;70.61;;
40103;Laerm;25814;48.550;9.108;2022-08-14T08:03:48;47.86;29.49;67.86;;
40103;Laerm;25814;48.550;9.108;2022-08-14T08:06:17;37.70;28.99;61.86;;
40103;Laerm;25814;48.550;9.108;2022-08-14T08:08:51;42.67;29.01;59.71;;
40103;Laerm;25814;48.550;9.108;2022-08-14T08:11:21;34.98;28.87;48.59;;
40103;Laerm;25814;48.550;9.108;2022-08-14T08:13:50;34.57;29.47;46.32;;
40103;Laerm;25814;48.550;9.108;2022-08-14T08:16:22;32.89;29.04;49.51;;
40103;Laerm;25814;48.550;9.108;2022-08-14T08:18:51;53.73;28.40;70.77;;
40103;Laerm;25814;48.550;9.108;2022-08-14T08:21:20;35.49;28.41;58.79;;
40103;Laerm;25814;48.550;9.108;2022-08-14T08:23:49;31.97;28.53;50.37;;
40103;Laerm;25814;48.550;9.108;2022-08-14T08:26:19;32.81;28.99;46.41;;
40103;Laerm;25814;48.550;9.108;2022-08-14T08:28:55;36.85;29.48;61.74;;
40103;Laerm;25814;48.550;9.108;2022-08-14T08:31:27;41.74;29.30;65.41;;
40103;Laerm;25814;48.550;9.108;2022-08-14T08:33:55;39.31;28.80;63.11;;
40103;Laerm;25814;48.550;9.108;2022-08-14T08:36:24;37.97;28.33;60.00;;
40103;Laerm;25814;48.550;9.108;2022-08-14T08:38:59;33.14;28.88;53.62;;
40103;Laerm;25814;48.550;9.108;2022-08-14T08:41:42;37.58;28.55;49.99;;
40103;Laerm;25814;48.550;9.108;2022-08-14T08:44:12;34.12;28.73;47.89;;
40103;Laerm;25814;48.550;9.108;2022-08-14T08:46:56;36.87;28.70;69.22;;
40103;Laerm;25814;48.550;9.108;2022-08-14T08:49:37;33.02;28.64;45.17;;
40103;Laerm;25814;48.550;9.108;2022-08-14T08:52:07;35.40;29.89;57.60;;
40103;Laerm;25814;48.550;9.108;2022-08-14T08:54:37;34.74;29.74;58.95;;
40103;Laerm;25814;48.550;9.108;2022-08-14T08:57:11;33.08;29.40;50.58;;
40103;Laerm;25814;48.550;9.108;2022-08-14T08:59:40;35.78;29.66;47.68;;
40103;Laerm;25814;48.550;9.108;2022-08-14T09:02:11;34.75;29.71;50.20;;
40103;Laerm;25814;48.550;9.108;2022-08-14T09:04:43;33.98;29.47;54.07;;
40103;Laerm;25814;48.550;9.108;2022-08-14T09:07:12;33.21;29.02;54.45;;
40103;Laerm;25814;48.550;9.108;2022-08-14T09:09:41;33.69;28.84;58.10;;
40103;Laerm;25814;48.550;9.108;2022-08-14T09:12:19;35.58;29.79;54.85;;
40103;Laerm;25814;48.550;9.108;2022-08-14T09:14:49;33.13;29.14;56.72;;
40103;Laerm;25814;48.550;9.108;2022-08-14T09:17:21;34.80;28.75;52.76;;
40103;Laerm;25814;48.550;9.108;2022-08-14T09:19:50;34.74;29.27;48.14;;
40103;Laerm;25814;48.550;9.108;2022-08-14T09:22:19;36.74;30.25;52.31;;
40103;Laerm;25814;48.550;9.108;2022-08-14T09:24:48;46.62;29.55;65.12;;
40103;Laerm;25814;48.550;9.108;2022-08-14T09:27:17;33.01;29.17;51.37;;
40103;Laerm;25814;48.550;9.108;2022-08-14T09:29:46;34.79;29.66;50.14;;
40103;Laerm;25814;48.550;9.108;2022-08-14T09:32:28;49.08;30.31;72.84;;
40103;Laerm;25814;48.550;9.108;2022-08-14T09:35:14;36.01;30.92;45.68;;
40103;Laerm;25814;48.550;9.108;2022-08-14T09:37:57;35.33;30.09;51.55;;
40103;Laerm;25814;48.550;9.108;2022-08-14T09:40:56;44.56;29.99;59.82;;
40103;Laerm;25814;48.550;9.108;2022-08-14T09:43:35;34.43;29.97;49.47;;
40103;Laerm;25814;48.550;9.108;2022-08-14T09:46:09;37.56;30.16;64.84;;
40103;Laerm;25814;48.550;9.108;2022-08-14T09:48:44;38.25;31.12;47.17;;
40103;Laerm;25814;48.550;9.108;2022-08-14T09:51:21;35.26;29.74;57.52;;
40103;Laerm;25814;48.550;9.108;2022-08-14T09:54:01;36.35;30.22;54.45;;
40103;Laerm;25814;48.550;9.108;2022-08-14T09:56:43;52.56;31.88;79.10;;
40103;Laerm;25814;48.550;9.108;2022-08-14T09:59:15;48.51;30.65;77.80;;
40103;Laerm;25814;48.550;9.108;2022-08-14T10:01:48;49.32;30.19;75.13;;
40103;Laerm;25814;48.550;9.108;2022-08-14T10:04:23;41.98;30.10;70.07;;
40103;Laerm;25814;48.550;9.108;2022-08-14T10:06:54;46.72;32.99;69.79;;
40103;Laerm;25814;48.550;9.108;2022-08-14T10:09:23;42.73;32.96;60.60;;
40103;Laerm;25814;48.550;9.108;2022-08-14T10:11:55;45.43;30.86;62.38;;
40103;Laerm;25814;48.550;9.108;2022-08-14T10:14:28;39.55;29.45;71.60;;
40103;Laerm;25814;48.550;9.108;2022-08-14T10:16:58;45.59;29.63;72.98;;
40103;Laerm;25814;48.550;9.108;2022-08-14T10:19:29;44.31;30.08;75.85;;
40103;Laerm;25814;48.550;9.108;2022-08-14T10:22:03;41.05;30.44;64.69;;
40103;Laerm;25814;48.550;9.108;2022-08-14T10:24:38;44.82;30.38;65.28;;
40103;Laerm;25814;48.550;9.108;2022-08-14T10:27:15;42.37;30.48;60.03;;
40103;Laerm;25814;48.550;9.108;2022-08-14T10:29:49;42.78;29.56;68.65;;
40103;Laerm;25814;48.550;9.108;2022-08-14T10:32:19;43.51;30.32;60.55;;
40103;Laerm;25814;48.550;9.108;2022-08-14T10:34:50;36.69;29.07;56.01;;
40103;Laerm;25814;48.550;9.108;2022-08-14T10:37:19;39.79;29.32;61.71;;
40103;Laerm;25814;48.550;9.108;2022-08-14T10:39:58;52.10;29.84;78.17;;
40103;Laerm;25814;48.550;9.108;2022-08-14T10:42:35;37.12;30.58;53.47;;
40103;Laerm;25814;48.550;9.108;2022-08-14T10:45:17;35.13;29.39;57.41;;
40103;Laerm;25814;48.550;9.108;2022-08-14T10:47:47;40.58;29.52;55.79;;
40103;Laerm;25814;48.550;9.108;2022-08-14T10:50:30;34.35;29.66;49.35;;
40103;Laerm;25814;48.550;9.108;2022-08-14T10:53:00;42.73;31.54;67.21;;
40103;Laerm;25814;48.550;9.108;2022-08-14T10:55:32;40.50;30.80;64.99;;
40103;Laerm;25814;48.550;9.108;2022-08-14T10:58:06;46.16;29.65;62.65;;
40103;Laerm;25814;48.550;9.108;2022-08-14T11:00:38;34.35;29.87;50.69;;
40103;Laerm;25814;48.550;9.108;2022-08-14T11:03:11;34.50;28.93;54.87;;
40103;Laerm;25814;48.550;9.108;2022-08-14T11:05:48;35.23;29.65;53.14;;
40103;Laerm;25814;48.550;9.108;2022-08-14T11:08:30;39.35;30.14;59.10;;
40103;Laerm;25814;48.550;9.108;2022-08-14T11:11:02;42.15;32.95;63.77;;
40103;Laerm;25814;48.550;9.108;2022-08-14T11:13:32;42.62;32.02;59.17;;
40103;Laerm;25814;48.550;9.108;2022-08-14T11:16:03;38.03;31.69;62.95;;
40103;Laerm;25814;48.550;9.108;2022-08-14T11:18:32;35.49;31.95;52.61;;
40103;Laerm;25814;48.550;9.108;2022-08-14T11:21:05;35.18;31.55;60.61;;
40103;Laerm;25814;48.550;9.108;2022-08-14T11:23:36;39.63;32.80;46.79;;
40103;Laerm;25814;48.550;9.108;2022-08-14T11:26:07;32.74;29.46;39.95;;
40103;Laerm;25814;48.550;9.108;2022-08-14T11:28:41;32.63;28.82;44.64;;
40103;Laerm;25814;48.550;9.108;2022-08-14T11:31:11;33.65;29.28;51.84;;
40103;Laerm;25814;48.550;9.108;2022-08-14T11:33:42;35.21;30.48;49.94;;
40103;Laerm;25814;48.550;9.108;2022-08-14T11:36:13;43.29;31.11;61.08;;
40103;Laerm;25814;48.550;9.108;2022-08-14T11:38:44;31.88;29.19;44.62;;
40103;Laerm;25814;48.550;9.108;2022-08-14T11:41:14;34.88;29.72;41.40;;
40103;Laerm;25814;48.550;9.108;2022-08-14T11:43:46;33.48;29.55;42.55;;
40103;Laerm;25814;48.550;9.108;2022-08-14T11:46:16;41.65;30.29;65.11;;
40103;Laerm;25814;48.550;9.108;2022-08-14T11:48:48;49.94;30.10;68.94;;
40103;Laerm;25814;48.550;9.108;2022-08-14T11:51:24;33.72;28.73;52.64;;
40103;Laerm;25814;48.550;9.108;2022-08-14T11:53:58;39.54;29.51;63.58;;
40103;Laerm;25814;48.550;9.108;2022-08-14T11:56:34;45.28;29.57;61.84;;
40103;Laerm;25814;48.550;9.108;2022-08-14T11:59:07;39.47;29.79;55.59;;
40103;Laerm;25814;48.550;9.108;2022-08-14T12:01:43;39.43;29.56;54.01;;
40103;Laerm;25814;48.550;9.108;2022-08-14T12:04:15;32.39;29.15;42.11;;
40103;Laerm;25814;48.550;9.108;2022-08-14T12:06:53;42.71;28.82;62.22;;
40103;Laerm;25814;48.550;9.108;2022-08-14T12:09:30;44.79;29.92;63.35;;
40103;Laerm;25814;48.550;9.108;2022-08-14T12:12:11;41.26;29.75;55.41;;
40103;Laerm;25814;48.550;9.108;2022-08-14T12:14:48;36.38;29.15;54.47;;
40103;Laerm;25814;48.550;9.108;2022-08-14T12:17:22;37.64;30.22;61.60;;
40103;Laerm;25814;48.550;9.108;2022-08-14T12:19:53;35.87;29.58;66.56;;
40103;Laerm;25814;48.550;9.108;2022-08-14T12:22:39;45.56;29.85;68.33;;
40103;Laerm;25814;48.550;9.108;2022-08-14T12:25:12;46.02;29.93;73.14;;
40103;Laerm;25814;48.550;9.108;2022-08-14T12:27:46;33.51;29.26;45.90;;
40103;Laerm;25814;48.550;9.108;2022-08-14T12:30:29;33.64;29.50;55.07;;
40103;Laerm;25814;48.550;9.108;2022-08-14T12:33:00;32.56;29.13;48.62;;
40103;Laerm;25814;48.550;9.108;2022-08-14T12:35:38;46.67;29.01;63.17;;
40103;Laerm;25814;48.550;9.108;2022-08-14T12:38:12;33.85;28.92;50.20;;
40103;Laerm;25814;48.550;9.108;2022-08-14T12:40:46;33.22;29.75;47.68;;
40103;Laerm;25814;48.550;9.108;2022-08-14T12:43:16;38.62;29.47;66.98;;
40103;Laerm;25814;48.550;9.108;2022-08-14T12:45:51;43.61;29.22;68.25;;
40103;Laerm;25814;48.550;9.108;2022-08-14T12:48:22;33.46;29.39;49.68;;
40103;Laerm;25814;48.550;9.108;2022-08-14T12:50:54;34.88;29.23;62.36;;
40103;Laerm;25814;48.550;9.108;2022-08-14T12:53:34;31.58;29.04;36.27;;
40103;Laerm;25814;48.550;9.108;2022-08-14T12:56:04;34.02;29.25;48.28;;
40103;Laerm;25814;48.550;9.108;2022-08-14T12:58:35;33.23;28.88;46.36;;
40103;Laerm;25814;48.550;9.108;2022-08-14T13:01:06;39.98;29.05;67.70;;
40103;Laerm;25814;48.550;9.108;2022-08-14T13:03:35;31.98;28.83;49.04;;
40103;Laerm;25814;48.550;9.108;2022-08-14T13:06:05;31.80;29.20;49.41;;
40103;Laerm;25814;48.550;9.108;2022-08-14T13:08:37;32.19;29.09;50.02;;
40103;Laerm;25814;48.550;9.108;2022-08-14T13:11:11;33.08;28.99;54.37;;
40103;Laerm;25814;48.550;9.108;2022-08-14T13:13:42;31.29;28.86;38.80;;
40103;Laerm;25814;48.550;9.108;2022-08-14T13:16:12;32.26;28.94;52.32;;
40103;Laerm;25814;48.550;9.108;2022-08-14T13:18:42;32.48;28.90;51.04;;
40103;Laerm;25814;48.550;9.108;2022-08-14T13:21:13;36.24;30.16;52.81;;
40103;Laerm;25814;48.550;9.108;2022-08-14T13:23:45;49.70;30.32;71.33;;
40103;Laerm;25814;48.550;9.108;2022-08-14T13:26:15;36.87;30.14;47.03;;
40103;Laerm;25814;48.550;9.108;2022-08-14T13:28:46;40.80;29.11;56.53;;
40103;Laerm;25814;48.550;9.108;2022-08-14T13:31:21;44.74;29.43;60.84;;
40103;Laerm;25814;48.550;9.108;2022-08-14T13:33:52;33.08;29.48;44.68;;
40103;Laerm;25814;48.550;9.108;2022-08-14T13:36:25;35.75;29.88;63.94;;
40103;Laerm;25814;48.550;9.108;2022-08-14T13:38:57;33.75;29.11;52.54;;
40103;Laerm;25814;48.550;9.108;2022-08-14T13:41:27;32.46;29.02;47.67;;
40103;Laerm;25814;48.550;9.108;2022-08-14T13:43:59;32.97;29.19;55.14;;
40103;Laerm;25814;48.550;9.108;2022-08-14T13:46:28;35.08;30.09;59.63;;
40103;Laerm;25814;48.550;9.108;2022-08-14T13:48:56;32.98;29.60;53.72;;
40103;Laerm;25814;48.550;9.108;2022-08-14T13:51:31;32.65;28.57;58.44;;
40103;Laerm;25814;48.550;9.108;2022-08-14T13:54:06;32.53;29.35;48.08;;
40103;Laerm;25814;48.550;9.108;2022-08-14T13:56:39;34.05;29.80;48.96;;
40103;Laerm;25814;48.550;9.108;2022-08-14T13:59:09;33.50;29.01;55.86;;
40103;Laerm;25814;48.550;9.108;2022-08-14T14:01:39;33.17;29.38;52.75;;
40103;Laerm;25814;48.550;9.108;2022-08-14T14:04:15;32.93;29.60;50.44;;
40103;Laerm;25814;48.550;9.108;2022-08-14T14:06:48;34.40;30.75;57.61;;
40103;Laerm;25814;48.550;9.108;2022-08-14T14:09:27;34.29;30.34;51.17;;